sensor_id;sensor_type;location;lat;lon;timestamp;pressure;altitude;pressure_sealevel;temperature;humidity
45050;BME280;61798;48.048;-1.928;2024-02-16T00:00:34;99325.97;;;10.93;100.00
45050;BME280;61798;48.048;-1.928;2024-02-16T00:02:41;99344.50;;;10.95;100.00
45050;BME280;61798;48.048;-1.928;2024-02-16T00:04:49;99336.69;;;10.93;100.00
45050;BME280;61798;48.048;-1.928;2024-02-16T00:06:56;99337.41;;;11.00;100.00
45050;BME280;61798;48.048;-1.928;2024-02-16T00:09:03;99334.16;;;10.98;100.00
45050;BME280;61798;48.048;-1.928;2024-02-16T00:11:10;99324.63;;;11.03;100.00
45050;BME280;61798;48.048;-1.928;2024-02-16T00:13:17;99347.00;;;11.08;100.00
45050;BME280;61798;48.048;-1.928;2024-02-16T00:15:24;99353.63;;;11.06;100.00
45050;BME280;61798;48.048;-1.928;2024-02-16T00:17:31;99345.25;;;11.02;100.00
45050;BME280;61798;48.048;-1.928;2024-02-16T00:19:40;99364.13;;;11.07;100.00
45050;BME280;61798;48.048;-1.928;2024-02-16T00:21:47;99355.25;;;11.07;100.00
45050;BME280;61798;48.048;-1.928;2024-02-16T00:23:54;99346.84;;;11.03;100.00
45050;BME280;61798;48.048;-1.928;2024-02-16T00:26:02;99351.63;;;11.01;100.00
45050;BME280;61798;48.048;-1.928;2024-02-16T00:28:09;99360.19;;;11.10;100.00
45050;BME280;61798;48.048;-1.928;2024-02-16T00:30:17;99351.31;;;11.09;100.00
45050;BME280;61798;48.048;-1.928;2024-02-16T00:32:25;99355.03;;;11.08;100.00
45050;BME280;61798;48.048;-1.928;2024-02-16T00:34:37;99365.09;;;11.13;100.00
45050;BME280;61798;48.048;-1.928;2024-02-16T00:36:46;99345.28;;;11.14;100.00
45050;BME280;61798;48.048;-1.928;2024-02-16T00:38:53;99346.16;;;11.08;100.00
45050;BME280;61798;48.048;-1.928;2024-02-16T00:41:01;99334.75;;;11.13;100.00
45050;BME280;61798;48.048;-1.928;2024-02-16T00:43:08;99347.91;;;11.02;100.00
45050;BME280;61798;48.048;-1.928;2024-02-16T00:45:15;99324.47;;;10.97;100.00
45050;BME280;61798;48.048;-1.928;2024-02-16T00:47:22;99333.00;;;11.06;100.00
45050;BME280;61798;48.048;-1.928;2024-02-16T00:49:30;99329.38;;;11.00;100.00
45050;BME280;61798;48.048;-1.928;2024-02-16T00:51:39;99345.13;;;11.09;100.00
45050;BME280;61798;48.048;-1.928;2024-02-16T00:53:46;99319.00;;;11.04;100.00
45050;BME280;61798;48.048;-1.928;2024-02-16T00:55:53;99318.78;;;11.06;100.00
45050;BME280;61798;48.048;-1.928;2024-02-16T00:58:02;99320.66;;;11.05;100.00
45050;BME280;61798;48.048;-1.928;2024-02-16T01:00:09;99316.66;;;10.96;100.00
45050;BME280;61798;48.048;-1.928;2024-02-16T01:02:17;99321.69;;;11.04;100.00
45050;BME280;61798;48.048;-1.928;2024-02-16T01:04:24;99313.16;;;10.95;100.00
45050;BME280;61798;48.048;-1.928;2024-02-16T01:06:31;99327.16;;;10.97;100.00
45050;BME280;61798;48.048;-1.928;2024-02-16T01:08:38;99339.41;;;11.05;100.00
45050;BME280;61798;48.048;-1.928;2024-02-16T01:10:44;99305.00;;;10.90;100.00
45050;BME280;61798;48.048;-1.928;2024-02-16T01:12:50;99340.91;;;11.01;100.00
45050;BME280;61798;48.048;-1.928;2024-02-16T01:15:00;99347.44;;;11.05;100.00
45050;BME280;61798;48.048;-1.928;2024-02-16T01:17:07;99351.16;;;11.04;100.00
45050;BME280;61798;48.048;-1.928;2024-02-16T01:19:15;99349.09;;;11.06;100.00
45050;BME280;61798;48.048;-1.928;2024-02-16T01:21:22;99351.16;;;11.04;100.00
45050;BME280;61798;48.048;-1.928;2024-02-16T01:23:30;99251.63;;;11.00;100.00
45050;BME280;61798;48.048;-1.928;2024-02-16T01:25:37;99261.53;;;11.00;100.00
45050;BME280;61798;48.048;-1.928;2024-02-16T01:27:44;99274.81;;;11.07;100.00
45050;BME280;61798;48.048;-1.928;2024-02-16T01:29:50;99280.19;;;11.07;100.00
45050;BME280;61798;48.048;-1.928;2024-02-16T01:31:57;99294.19;;;11.09;100.00
45050;BME280;61798;48.048;-1.928;2024-02-16T01:34:04;99286.84;;;11.04;100.00
45050;BME280;61798;48.048;-1.928;2024-02-16T01:36:11;99288.69;;;11.04;100.00
45050;BME280;61798;48.048;-1.928;2024-02-16T01:38:18;99293.38;;;11.08;100.00
45050;BME280;61798;48.048;-1.928;2024-02-16T01:40:25;99300.84;;;11.06;100.00
45050;BME280;61798;48.048;-1.928;2024-02-16T01:42:31;99304.22;;;11.14;100.00
45050;BME280;61798;48.048;-1.928;2024-02-16T01:44:38;99305.75;;;11.09;100.00
45050;BME280;61798;48.048;-1.928;2024-02-16T01:46:46;99314.59;;;11.10;100.00
45050;BME280;61798;48.048;-1.928;2024-02-16T01:48:55;99323.22;;;11.12;100.00
45050;BME280;61798;48.048;-1.928;2024-02-16T01:51:02;99324.50;;;11.09;100.00
45050;BME280;61798;48.048;-1.928;2024-02-16T01:53:12;99337.44;;;11.13;100.00
45050;BME280;61798;48.048;-1.928;2024-02-16T01:55:20;99344.09;;;11.10;100.00
45050;BME280;61798;48.048;-1.928;2024-02-16T01:57:26;99357.72;;;11.08;100.00
45050;BME280;61798;48.048;-1.928;2024-02-16T01:59:33;99368.44;;;11.08;100.00
45050;BME280;61798;48.048;-1.928;2024-02-16T02:01:40;99373.22;;;11.06;100.00
45050;BME280;61798;48.048;-1.928;2024-02-16T02:03:46;99387.56;;;11.12;100.00
45050;BME280;61798;48.048;-1.928;2024-02-16T02:05:53;99365.34;;;10.93;100.00
45050;BME280;61798;48.048;-1.928;2024-02-16T02:08:13;99395.72;;;11.05;100.00
45050;BME280;61798;48.048;-1.928;2024-02-16T02:10:20;99396.75;;;11.04;100.00
45050;BME280;61798;48.048;-1.928;2024-02-16T02:12:29;99401.53;;;11.02;100.00
45050;BME280;61798;48.048;-1.928;2024-02-16T02:14:36;99424.53;;;11.10;100.00
45050;BME280;61798;48.048;-1.928;2024-02-16T02:16:44;99422.72;;;11.04;100.00
45050;BME280;61798;48.048;-1.928;2024-02-16T02:18:52;99436.50;;;11.07;100.00
45050;BME280;61798;48.048;-1.928;2024-02-16T02:20:59;99442.94;;;11.06;100.00
45050;BME280;61798;48.048;-1.928;2024-02-16T02:23:06;99452.31;;;10.97;100.00
45050;BME280;61798;48.048;-1.928;2024-02-16T02:25:12;99468.84;;;10.94;100.00
45050;BME280;61798;48.048;-1.928;2024-02-16T02:27:19;99482.56;;;10.85;100.00
45050;BME280;61798;48.048;-1.928;2024-02-16T02:29:30;99468.69;;;10.70;100.00
45050;BME280;61798;48.048;-1.928;2024-02-16T02:31:37;99477.13;;;10.73;100.00
45050;BME280;61798;48.048;-1.928;2024-02-16T02:33:44;99480.63;;;10.74;100.00
45050;BME280;61798;48.048;-1.928;2024-02-16T02:35:51;99485.66;;;10.63;100.00
45050;BME280;61798;48.048;-1.928;2024-02-16T02:37:58;99483.22;;;10.62;100.00
45050;BME280;61798;48.048;-1.928;2024-02-16T02:40:06;99485.53;;;10.58;100.00
45050;BME280;61798;48.048;-1.928;2024-02-16T02:42:15;99490.44;;;10.61;100.00
45050;BME280;61798;48.048;-1.928;2024-02-16T02:44:21;99484.69;;;10.57;100.00
45050;BME280;61798;48.048;-1.928;2024-02-16T02:46:28;99465.00;;;10.45;100.00
45050;BME280;61798;48.048;-1.928;2024-02-16T02:48:35;99458.81;;;10.44;100.00
45050;BME280;61798;48.048;-1.928;2024-02-16T02:50:41;99444.09;;;10.35;100.00
45050;BME280;61798;48.048;-1.928;2024-02-16T02:52:47;99438.88;;;10.40;100.00
45050;BME280;61798;48.048;-1.928;2024-02-16T02:54:54;99423.75;;;10.27;100.00
45050;BME280;61798;48.048;-1.928;2024-02-16T02:57:02;99435.53;;;10.26;100.00
45050;BME280;61798;48.048;-1.928;2024-02-16T02:59:10;99411.47;;;10.19;100.00
45050;BME280;61798;48.048;-1.928;2024-02-16T03:01:16;99443.03;;;10.17;100.00
45050;BME280;61798;48.048;-1.928;2024-02-16T03:03:26;99434.53;;;10.20;100.00
45050;BME280;61798;48.048;-1.928;2024-02-16T03:05:32;99453.91;;;10.22;100.00
45050;BME280;61798;48.048;-1.928;2024-02-16T03:07:40;99466.22;;;10.23;100.00
45050;BME280;61798;48.048;-1.928;2024-02-16T03:09:47;99464.25;;;10.12;100.00
45050;BME280;61798;48.048;-1.928;2024-02-16T03:11:54;99499.31;;;10.10;100.00
45050;BME280;61798;48.048;-1.928;2024-02-16T03:14:01;99482.84;;;10.07;100.00
45050;BME280;61798;48.048;-1.928;2024-02-16T03:16:09;99494.97;;;10.09;100.00
45050;BME280;61798;48.048;-1.928;2024-02-16T03:18:16;99468.16;;;9.90;100.00
45050;BME280;61798;48.048;-1.928;2024-02-16T03:20:23;99512.88;;;10.09;100.00
45050;BME280;61798;48.048;-1.928;2024-02-16T03:22:30;99524.03;;;10.05;100.00
45050;BME280;61798;48.048;-1.928;2024-02-16T03:24:38;99504.03;;;9.82;100.00
45050;BME280;61798;48.048;-1.928;2024-02-16T03:26:45;99494.16;;;9.76;100.00
45050;BME280;61798;48.048;-1.928;2024-02-16T03:28:52;99507.66;;;9.95;100.00
45050;BME280;61798;48.048;-1.928;2024-02-16T03:30:59;99517.91;;;9.98;100.00
45050;BME280;61798;48.048;-1.928;2024-02-16T03:33:06;99499.25;;;9.84;100.00
45050;BME280;61798;48.048;-1.928;2024-02-16T03:35:14;99501.94;;;9.84;100.00
45050;BME280;61798;48.048;-1.928;2024-02-16T03:37:21;99507.28;;;9.84;100.00
45050;BME280;61798;48.048;-1.928;2024-02-16T03:39:28;99537.28;;;9.93;100.00
45050;BME280;61798;48.048;-1.928;2024-02-16T03:41:35;99528.88;;;9.90;100.00
45050;BME280;61798;48.048;-1.928;2024-02-16T03:43:43;99537.75;;;9.90;100.00
45050;BME280;61798;48.048;-1.928;2024-02-16T03:45:50;99534.81;;;9.92;100.00
45050;BME280;61798;48.048;-1.928;2024-02-16T03:47:57;99528.31;;;9.81;100.00
45050;BME280;61798;48.048;-1.928;2024-02-16T03:50:05;99513.13;;;9.75;100.00
45050;BME280;61798;48.048;-1.928;2024-02-16T03:52:13;99515.56;;;9.83;100.00
45050;BME280;61798;48.048;-1.928;2024-02-16T03:54:21;99527.03;;;9.90;100.00
45050;BME280;61798;48.048;-1.928;2024-02-16T03:56:28;99530.78;;;9.82;100.00
45050;BME280;61798;48.048;-1.928;2024-02-16T03:58:36;99536.72;;;9.84;100.00
45050;BME280;61798;48.048;-1.928;2024-02-16T04:00:43;99531.63;;;9.76;100.00
45050;BME280;61798;48.048;-1.928;2024-02-16T04:02:51;99521.31;;;9.80;100.00
45050;BME280;61798;48.048;-1.928;2024-02-16T04:05:03;99540.66;;;9.82;100.00
45050;BME280;61798;48.048;-1.928;2024-02-16T04:07:12;99541.66;;;9.88;100.00
45050;BME280;61798;48.048;-1.928;2024-02-16T04:09:21;99508.47;;;9.63;100.00
45050;BME280;61798;48.048;-1.928;2024-02-16T04:11:28;99532.69;;;9.75;100.00
45050;BME280;61798;48.048;-1.928;2024-02-16T04:13:41;99544.16;;;9.82;100.00
45050;BME280;61798;48.048;-1.928;2024-02-16T04:15:48;99545.00;;;9.76;100.00
45050;BME280;61798;48.048;-1.928;2024-02-16T04:17:55;99553.03;;;9.76;100.00
45050;BME280;61798;48.048;-1.928;2024-02-16T04:20:01;99557.78;;;9.74;100.00
45050;BME280;61798;48.048;-1.928;2024-02-16T04:22:07;99554.25;;;9.80;100.00
45050;BME280;61798;48.048;-1.928;2024-02-16T04:24:14;99544.22;;;9.69;100.00
45050;BME280;61798;48.048;-1.928;2024-02-16T04:26:21;99569.06;;;9.83;100.00
45050;BME280;61798;48.048;-1.928;2024-02-16T04:28:28;99589.66;;;9.82;100.00
45050;BME280;61798;48.048;-1.928;2024-02-16T04:30:35;99586.78;;;9.77;100.00
45050;BME280;61798;48.048;-1.928;2024-02-16T04:32:42;99592.53;;;9.81;100.00
45050;BME280;61798;48.048;-1.928;2024-02-16T04:34:49;99581.03;;;9.73;100.00
45050;BME280;61798;48.048;-1.928;2024-02-16T04:36:56;99610.63;;;9.86;100.00
45050;BME280;61798;48.048;-1.928;2024-02-16T04:39:04;99600.16;;;9.77;100.00
45050;BME280;61798;48.048;-1.928;2024-02-16T04:41:11;99591.34;;;9.70;100.00
45050;BME280;61798;48.048;-1.928;2024-02-16T04:43:18;99614.94;;;9.87;100.00
45050;BME280;61798;48.048;-1.928;2024-02-16T04:45:24;99618.69;;;9.79;100.00
45050;BME280;61798;48.048;-1.928;2024-02-16T04:47:32;99624.69;;;9.74;100.00
45050;BME280;61798;48.048;-1.928;2024-02-16T04:49:39;99654.50;;;9.78;100.00
45050;BME280;61798;48.048;-1.928;2024-02-16T04:51:47;99661.28;;;9.80;100.00
45050;BME280;61798;48.048;-1.928;2024-02-16T04:53:54;99668.91;;;9.77;100.00
45050;BME280;61798;48.048;-1.928;2024-02-16T04:56:01;99687.59;;;9.83;100.00
45050;BME280;61798;48.048;-1.928;2024-02-16T04:58:09;99690.13;;;9.78;100.00
45050;BME280;61798;48.048;-1.928;2024-02-16T05:00:19;99709.25;;;9.82;100.00
45050;BME280;61798;48.048;-1.928;2024-02-16T05:02:25;99710.69;;;9.78;100.00
45050;BME280;61798;48.048;-1.928;2024-02-16T05:04:30;99758.22;;;9.82;100.00
45050;BME280;61798;48.048;-1.928;2024-02-16T05:07:00;99743.19;;;9.81;100.00
45050;BME280;61798;48.048;-1.928;2024-02-16T05:09:10;99759.28;;;9.68;100.00
45050;BME280;61798;48.048;-1.928;2024-02-16T05:11:17;99770.81;;;9.75;100.00
45050;BME280;61798;48.048;-1.928;2024-02-16T05:13:26;99766.06;;;9.70;100.00
45050;BME280;61798;48.048;-1.928;2024-02-16T05:15:33;99759.28;;;9.68;100.00
45050;BME280;61798;48.048;-1.928;2024-02-16T05:17:41;99794.06;;;9.75;100.00
45050;BME280;61798;48.048;-1.928;2024-02-16T05:19:48;99778.03;;;9.54;100.00
45050;BME280;61798;48.048;-1.928;2024-02-16T05:21:55;99798.41;;;9.55;100.00
45050;BME280;61798;48.048;-1.928;2024-02-16T05:24:21;99825.56;;;9.66;100.00
45050;BME280;61798;48.048;-1.928;2024-02-16T05:26:32;99834.00;;;9.62;100.00
45050;BME280;61798;48.048;-1.928;2024-02-16T05:28:38;99827.41;;;9.45;100.00
45050;BME280;61798;48.048;-1.928;2024-02-16T05:30:45;99827.81;;;9.41;100.00
45050;BME280;61798;48.048;-1.928;2024-02-16T05:32:55;99860.72;;;9.56;100.00
45050;BME280;61798;48.048;-1.928;2024-02-16T05:35:06;99861.56;;;9.56;100.00
45050;BME280;61798;48.048;-1.928;2024-02-16T05:37:25;99863.84;;;9.59;100.00
45050;BME280;61798;48.048;-1.928;2024-02-16T05:39:33;99868.75;;;9.56;100.00
45050;BME280;61798;48.048;-1.928;2024-02-16T05:41:44;99888.72;;;9.53;100.00
45050;BME280;61798;48.048;-1.928;2024-02-16T05:43:54;99889.53;;;9.54;100.00
45050;BME280;61798;48.048;-1.928;2024-02-16T05:46:01;99899.84;;;9.50;100.00
45050;BME280;61798;48.048;-1.928;2024-02-16T05:48:15;99907.03;;;9.43;100.00
45050;BME280;61798;48.048;-1.928;2024-02-16T05:50:37;99923.06;;;9.43;100.00
45050;BME280;61798;48.048;-1.928;2024-02-16T05:56:37;100016.03;;;9.40;100.00
45050;BME280;61798;48.048;-1.928;2024-02-16T05:59:35;100037.03;;;9.44;100.00
45050;BME280;61798;48.048;-1.928;2024-02-16T06:02:09;100027.72;;;9.26;100.00
45050;BME280;61798;48.048;-1.928;2024-02-16T06:04:33;100041.31;;;9.31;100.00
45050;BME280;61798;48.048;-1.928;2024-02-16T06:06:43;100066.41;;;9.37;100.00
45050;BME280;61798;48.048;-1.928;2024-02-16T06:08:55;100050.59;;;9.35;100.00
45050;BME280;61798;48.048;-1.928;2024-02-16T06:11:01;100056.69;;;9.15;100.00
45050;BME280;61798;48.048;-1.928;2024-02-16T06:13:21;100086.97;;;9.29;100.00
45050;BME280;61798;48.048;-1.928;2024-02-16T06:15:36;100101.13;;;9.23;100.00
45050;BME280;61798;48.048;-1.928;2024-02-16T06:17:43;100108.72;;;9.19;100.00
45050;BME280;61798;48.048;-1.928;2024-02-16T06:19:50;100108.47;;;9.14;100.00
45050;BME280;61798;48.048;-1.928;2024-02-16T06:21:58;100093.28;;;8.86;100.00
45050;BME280;61798;48.048;-1.928;2024-02-16T06:24:08;100145.75;;;8.94;100.00
45050;BME280;61798;48.048;-1.928;2024-02-16T06:26:24;100112.41;;;8.83;100.00
45050;BME280;61798;48.048;-1.928;2024-02-16T06:32:23;100169.25;;;8.76;100.00
45050;BME280;61798;48.048;-1.928;2024-02-16T06:34:42;100167.53;;;8.91;100.00
45050;BME280;61798;48.048;-1.928;2024-02-16T06:37:12;100146.63;;;8.72;100.00
45050;BME280;61798;48.048;-1.928;2024-02-16T06:39:21;100162.31;;;8.60;100.00
45050;BME280;61798;48.048;-1.928;2024-02-16T06:41:31;100175.81;;;8.52;100.00
45050;BME280;61798;48.048;-1.928;2024-02-16T06:43:40;100200.56;;;8.61;100.00
45050;BME280;61798;48.048;-1.928;2024-02-16T06:46:15;100221.94;;;8.61;100.00
45050;BME280;61798;48.048;-1.928;2024-02-16T06:48:21;100213.94;;;8.45;100.00
45050;BME280;61798;48.048;-1.928;2024-02-16T06:50:28;100209.53;;;8.38;100.00
45050;BME280;61798;48.048;-1.928;2024-02-16T06:53:04;100218.13;;;8.33;100.00
45050;BME280;61798;48.048;-1.928;2024-02-16T06:55:11;100243.53;;;8.44;100.00
45050;BME280;61798;48.048;-1.928;2024-02-16T06:57:17;100237.47;;;8.35;100.00
45050;BME280;61798;48.048;-1.928;2024-02-16T06:59:22;100237.13;;;8.23;100.00
45050;BME280;61798;48.048;-1.928;2024-02-16T07:01:28;100240.78;;;8.22;100.00
45050;BME280;61798;48.048;-1.928;2024-02-16T07:03:36;100247.53;;;8.18;100.00
45050;BME280;61798;48.048;-1.928;2024-02-16T07:05:55;100267.56;;;8.29;100.00
45050;BME280;61798;48.048;-1.928;2024-02-16T07:08:23;100275.66;;;8.20;100.00
45050;BME280;61798;48.048;-1.928;2024-02-16T07:10:34;100278.53;;;8.19;100.00
45050;BME280;61798;48.048;-1.928;2024-02-16T07:12:41;100260.16;;;7.93;100.00
45050;BME280;61798;48.048;-1.928;2024-02-16T07:14:49;100293.00;;;7.94;100.00
45050;BME280;61798;48.048;-1.928;2024-02-16T07:17:01;100290.78;;;7.82;100.00
45050;BME280;61798;48.048;-1.928;2024-02-16T07:19:08;100309.38;;;7.91;100.00
45050;BME280;61798;48.048;-1.928;2024-02-16T07:21:19;100315.63;;;7.98;100.00
45050;BME280;61798;48.048;-1.928;2024-02-16T07:23:30;100298.25;;;7.87;100.00
45050;BME280;61798;48.048;-1.928;2024-02-16T07:25:38;100309.31;;;7.84;100.00
45050;BME280;61798;48.048;-1.928;2024-02-16T07:27:50;100327.13;;;7.83;100.00
45050;BME280;61798;48.048;-1.928;2024-02-16T07:30:01;100312.03;;;7.76;100.00
45050;BME280;61798;48.048;-1.928;2024-02-16T07:32:15;100310.47;;;7.66;100.00
45050;BME280;61798;48.048;-1.928;2024-02-16T07:34:23;100306.59;;;7.69;100.00
45050;BME280;61798;48.048;-1.928;2024-02-16T07:36:35;100345.63;;;7.85;100.00
45050;BME280;61798;48.048;-1.928;2024-02-16T07:38:49;100357.50;;;7.82;100.00
45050;BME280;61798;48.048;-1.928;2024-02-16T07:41:01;100345.50;;;7.63;100.00
45050;BME280;61798;48.048;-1.928;2024-02-16T07:43:22;100359.38;;;7.58;100.00
45050;BME280;61798;48.048;-1.928;2024-02-16T07:45:31;100345.63;;;7.46;100.00
45050;BME280;61798;48.048;-1.928;2024-02-16T07:47:43;100371.22;;;7.56;100.00
45050;BME280;61798;48.048;-1.928;2024-02-16T07:49:53;100377.41;;;7.56;100.00
45050;BME280;61798;48.048;-1.928;2024-02-16T07:52:06;100410.50;;;7.62;100.00
45050;BME280;61798;48.048;-1.928;2024-02-16T07:54:26;100408.91;;;7.76;100.00
45050;BME280;61798;48.048;-1.928;2024-02-16T07:56:37;100417.50;;;7.63;100.00
45050;BME280;61798;48.048;-1.928;2024-02-16T07:58:45;100405.13;;;7.47;100.00
45050;BME280;61798;48.048;-1.928;2024-02-16T08:00:56;100432.72;;;7.78;100.00
45050;BME280;61798;48.048;-1.928;2024-02-16T08:03:09;100424.16;;;7.67;100.00
45050;BME280;61798;48.048;-1.928;2024-02-16T08:05:28;100437.13;;;7.70;100.00
45050;BME280;61798;48.048;-1.928;2024-02-16T08:07:40;100440.56;;;7.79;100.00
45050;BME280;61798;48.048;-1.928;2024-02-16T08:09:53;100447.06;;;7.77;100.00
45050;BME280;61798;48.048;-1.928;2024-02-16T08:12:23;100422.38;;;7.59;100.00
45050;BME280;61798;48.048;-1.928;2024-02-16T08:14:33;100433.97;;;7.67;100.00
45050;BME280;61798;48.048;-1.928;2024-02-16T08:17:07;100449.19;;;7.81;100.00
45050;BME280;61798;48.048;-1.928;2024-02-16T08:19:18;100467.97;;;7.88;100.00
45050;BME280;61798;48.048;-1.928;2024-02-16T08:21:53;100475.22;;;8.03;100.00
45050;BME280;61798;48.048;-1.928;2024-02-16T08:23:59;100467.69;;;7.83;100.00
45050;BME280;61798;48.048;-1.928;2024-02-16T08:26:06;100465.78;;;7.68;100.00
45050;BME280;61798;48.048;-1.928;2024-02-16T08:28:16;100501.25;;;8.01;100.00
45050;BME280;61798;48.048;-1.928;2024-02-16T08:30:27;100518.91;;;8.02;100.00
45050;BME280;61798;48.048;-1.928;2024-02-16T08:32:57;100508.81;;;8.12;100.00
45050;BME280;61798;48.048;-1.928;2024-02-16T08:35:13;100521.94;;;7.99;100.00
45050;BME280;61798;48.048;-1.928;2024-02-16T08:38:12;100536.59;;;8.03;100.00
45050;BME280;61798;48.048;-1.928;2024-02-16T08:42:12;100546.38;;;8.11;100.00
45050;BME280;61798;48.048;-1.928;2024-02-16T08:45:14;100546.59;;;8.01;100.00
45050;BME280;61798;48.048;-1.928;2024-02-16T08:47:40;100551.66;;;8.19;100.00
45050;BME280;61798;48.048;-1.928;2024-02-16T08:50:26;100556.59;;;8.07;100.00
45050;BME280;61798;48.048;-1.928;2024-02-16T08:53:18;100579.19;;;8.20;100.00
45050;BME280;61798;48.048;-1.928;2024-02-16T08:55:24;100578.47;;;8.26;100.00
45050;BME280;61798;48.048;-1.928;2024-02-16T08:57:33;100582.81;;;8.27;100.00
45050;BME280;61798;48.048;-1.928;2024-02-16T08:59:43;100583.69;;;8.19;100.00
45050;BME280;61798;48.048;-1.928;2024-02-16T09:01:52;100621.69;;;8.45;100.00
45050;BME280;61798;48.048;-1.928;2024-02-16T09:04:03;100631.38;;;8.46;100.00
45050;BME280;61798;48.048;-1.928;2024-02-16T09:06:10;100613.16;;;8.26;100.00
45050;BME280;61798;48.048;-1.928;2024-02-16T09:08:39;100636.81;;;8.53;100.00
45050;BME280;61798;48.048;-1.928;2024-02-16T09:11:48;100642.44;;;8.43;100.00
45050;BME280;61798;48.048;-1.928;2024-02-16T09:13:55;100663.66;;;8.60;100.00
45050;BME280;61798;48.048;-1.928;2024-02-16T09:16:03;100659.69;;;8.55;100.00
45050;BME280;61798;48.048;-1.928;2024-02-16T09:18:18;100655.00;;;8.57;100.00
45050;BME280;61798;48.048;-1.928;2024-02-16T09:21:09;100668.00;;;8.61;100.00
45050;BME280;61798;48.048;-1.928;2024-02-16T09:23:16;100670.72;;;8.52;100.00
45050;BME280;61798;48.048;-1.928;2024-02-16T09:25:23;100696.63;;;8.75;100.00
45050;BME280;61798;48.048;-1.928;2024-02-16T09:27:31;100701.31;;;8.73;100.00
45050;BME280;61798;48.048;-1.928;2024-02-16T09:29:41;100703.94;;;8.82;100.00
45050;BME280;61798;48.048;-1.928;2024-02-16T09:32:02;100718.06;;;8.91;100.00
45050;BME280;61798;48.048;-1.928;2024-02-16T09:34:20;100749.81;;;9.09;100.00
45050;BME280;61798;48.048;-1.928;2024-02-16T09:36:34;100741.78;;;9.09;100.00
45050;BME280;61798;48.048;-1.928;2024-02-16T09:39:08;100738.00;;;9.03;100.00
45050;BME280;61798;48.048;-1.928;2024-02-16T09:41:26;100780.16;;;9.16;100.00
45050;BME280;61798;48.048;-1.928;2024-02-16T09:44:07;100773.50;;;9.12;100.00
45050;BME280;61798;48.048;-1.928;2024-02-16T09:46:45;100758.03;;;9.07;100.00
45050;BME280;61798;48.048;-1.928;2024-02-16T09:48:55;100783.50;;;9.18;100.00
45050;BME280;61798;48.048;-1.928;2024-02-16T09:51:04;100805.00;;;9.25;100.00
45050;BME280;61798;48.048;-1.928;2024-02-16T09:53:12;100777.91;;;9.05;100.00
45050;BME280;61798;48.048;-1.928;2024-02-16T09:55:21;100826.84;;;9.29;100.00
45050;BME280;61798;48.048;-1.928;2024-02-16T09:57:31;100851.44;;;9.48;100.00
45050;BME280;61798;48.048;-1.928;2024-02-16T09:59:46;100841.38;;;9.35;100.00
45050;BME280;61798;48.048;-1.928;2024-02-16T10:02:04;100910.16;;;9.65;100.00
45050;BME280;61798;48.048;-1.928;2024-02-16T10:04:14;100942.09;;;9.90;100.00
45050;BME280;61798;48.048;-1.928;2024-02-16T10:16:47;100990.41;;;10.12;100.00
45050;BME280;61798;48.048;-1.928;2024-02-16T10:19:17;101056.88;;;10.47;100.00
45050;BME280;61798;48.048;-1.928;2024-02-16T10:21:49;101070.94;;;10.49;100.00
45050;BME280;61798;48.048;-1.928;2024-02-16T10:28:33;101097.97;;;10.39;100.00
45050;BME280;61798;48.048;-1.928;2024-02-16T10:32:09;101080.03;;;10.01;100.00
45050;BME280;61798;48.048;-1.928;2024-02-16T10:38:08;101108.97;;;10.05;100.00
45050;BME280;61798;48.048;-1.928;2024-02-16T10:47:42;101117.88;;;10.21;100.00
45050;BME280;61798;48.048;-1.928;2024-02-16T10:49:49;101103.34;;;10.15;100.00
45050;BME280;61798;48.048;-1.928;2024-02-16T10:51:57;101121.34;;;10.30;100.00
45050;BME280;61798;48.048;-1.928;2024-02-16T10:54:05;101120.47;;;10.14;100.00
45050;BME280;61798;48.048;-1.928;2024-02-16T10:56:13;101104.25;;;10.31;100.00
45050;BME280;61798;48.048;-1.928;2024-02-16T10:58:20;101129.53;;;10.52;100.00
45050;BME280;61798;48.048;-1.928;2024-02-16T11:00:28;101118.72;;;10.45;100.00
45050;BME280;61798;48.048;-1.928;2024-02-16T11:02:51;101137.38;;;10.62;100.00
45050;BME280;61798;48.048;-1.928;2024-02-16T11:04:57;101127.34;;;10.56;100.00
45050;BME280;61798;48.048;-1.928;2024-02-16T11:07:11;101147.06;;;10.63;100.00
45050;BME280;61798;48.048;-1.928;2024-02-16T11:09:34;101152.72;;;10.68;100.00
45050;BME280;61798;48.048;-1.928;2024-02-16T11:11:55;101144.38;;;10.63;100.00
45050;BME280;61798;48.048;-1.928;2024-02-16T11:14:15;101161.69;;;10.76;100.00
45050;BME280;61798;48.048;-1.928;2024-02-16T11:16:22;101149.34;;;10.75;100.00
45050;BME280;61798;48.048;-1.928;2024-02-16T11:18:36;101153.22;;;10.87;100.00
45050;BME280;61798;48.048;-1.928;2024-02-16T11:20:43;101172.78;;;10.73;100.00
45050;BME280;61798;48.048;-1.928;2024-02-16T11:23:04;101154.19;;;10.71;100.00
45050;BME280;61798;48.048;-1.928;2024-02-16T11:25:13;101164.69;;;10.81;100.00
45050;BME280;61798;48.048;-1.928;2024-02-16T11:27:21;101176.47;;;10.72;100.00
45050;BME280;61798;48.048;-1.928;2024-02-16T11:29:34;101194.56;;;10.93;100.00
45050;BME280;61798;48.048;-1.928;2024-02-16T11:31:43;101174.72;;;10.79;100.00
45050;BME280;61798;48.048;-1.928;2024-02-16T11:33:51;101204.28;;;10.94;100.00
45050;BME280;61798;48.048;-1.928;2024-02-16T11:36:00;101178.53;;;10.70;100.00
45050;BME280;61798;48.048;-1.928;2024-02-16T11:38:17;101181.22;;;10.85;100.00
45050;BME280;61798;48.048;-1.928;2024-02-16T11:40:26;101210.91;;;10.83;100.00
45050;BME280;61798;48.048;-1.928;2024-02-16T11:42:34;101164.81;;;10.64;100.00
45050;BME280;61798;48.048;-1.928;2024-02-16T11:44:51;101192.44;;;10.88;100.00
45050;BME280;61798;48.048;-1.928;2024-02-16T11:47:03;101192.56;;;10.72;100.00
45050;BME280;61798;48.048;-1.928;2024-02-16T11:49:12;101175.63;;;10.71;100.00
45050;BME280;61798;48.048;-1.928;2024-02-16T11:51:19;101226.22;;;10.98;100.00
45050;BME280;61798;48.048;-1.928;2024-02-16T11:53:31;101224.50;;;10.82;100.00
45050;BME280;61798;48.048;-1.928;2024-02-16T11:55:39;101233.41;;;10.97;100.00